createdAt,value
2022-08-03T00:00:12.333Z,59.71
2022-08-03T00:02:41.446Z,61.22
2022-08-03T00:05:11.252Z,61.43
2022-08-03T00:07:41.187Z,61.61
2022-08-03T00:10:13.714Z,61.96
2022-08-03T00:12:43.488Z,61.34
2022-08-03T00:15:16.474Z,61.33
2022-08-03T00:17:53.522Z,60.82
2022-08-03T00:20:17.185Z,60.89
2022-08-03T00:22:47.258Z,61.13
2022-08-03T00:25:16.772Z,60.82
2022-08-03T00:27:47.749Z,61.41
2022-08-03T00:30:18.091Z,62.32
2022-08-03T00:32:47.841Z,62.63
2022-08-03T00:35:36.699Z,62.53
2022-08-03T00:37:49.690Z,62.04
2022-08-03T00:40:20.703Z,61.85
2022-08-03T00:42:56.090Z,62.55
2022-08-03T00:45:28.293Z,62.69
2022-08-03T00:47:58.897Z,62.26
2022-08-03T00:50:31.005Z,62.87
2022-08-03T00:53:01.615Z,63.34
2022-08-03T00:55:31.552Z,63.89
2022-08-03T00:58:04.902Z,64.66
2022-08-03T01:00:38.754Z,64.98
2022-08-03T01:03:10.672Z,64.94
2022-08-03T01:05:55.290Z,64.92
2022-08-03T01:08:30.801Z,64.62
2022-08-03T01:11:18.220Z,64.36
2022-08-03T01:14:18.650Z,64.70
2022-08-03T01:16:55.633Z,64.59
2022-08-03T01:19:49.160Z,66.18
2022-08-03T01:22:30.359Z,66.18
2022-08-03T01:25:08.740Z,66.41
2022-08-03T01:27:53.725Z,65.83
2022-08-03T01:30:26.419Z,66.18
2022-08-03T01:33:03.694Z,66.15
2022-08-03T01:35:42.333Z,65.58
2022-08-03T01:38:15.165Z,65.84
2022-08-03T01:40:47.175Z,66.17
2022-08-03T01:43:58.919Z,66.04
2022-08-03T01:45:55.100Z,66.71
2022-08-03T01:48:25.697Z,66.03
2022-08-03T01:50:58.516Z,65.69
2022-08-03T01:53:30.432Z,66.60
2022-08-03T01:56:00.936Z,66.15
2022-08-03T01:58:32.362Z,66.70
2022-08-03T02:01:03.707Z,67.21
2022-08-03T02:03:36.551Z,66.79
2022-08-03T02:07:02.356Z,66.86
2022-08-03T02:08:44.102Z,66.86
2022-08-03T02:11:14.417Z,67.03
2022-08-03T02:13:46.627Z,67.01
2022-08-03T02:16:17.905Z,66.73
2022-08-03T02:18:49.407Z,66.60
2022-08-03T02:21:21.045Z,67.13
2022-08-03T02:23:52.519Z,66.79
2022-08-03T02:26:25.139Z,66.48
2022-08-03T02:28:57.602Z,66.52
2022-08-03T02:31:32.449Z,66.33
2022-08-03T02:34:05.414Z,66.32
2022-08-03T02:36:39.265Z,67.24
2022-08-03T02:39:11.933Z,67.88
2022-08-03T02:41:53.077Z,68.46
2022-08-03T02:44:27.227Z,68.36
2022-08-03T02:47:01.052Z,68.21
2022-08-03T02:49:40.953Z,68.40
2022-08-03T02:52:13.096Z,68.64
2022-08-03T02:54:42.225Z,68.63
2022-08-03T02:57:14.529Z,68.88
2022-08-03T02:59:45.548Z,69.47
2022-08-03T03:02:17.234Z,69.47
2022-08-03T03:04:58.869Z,68.70
2022-08-03T03:07:20.877Z,70.24
2022-08-03T03:09:52.173Z,69.29
2022-08-03T03:12:23.286Z,69.33
2022-08-03T03:14:53.076Z,69.69
2022-08-03T03:17:23.689Z,69.55
2022-08-03T03:19:54.696Z,69.51
2022-08-03T03:22:25.313Z,69.91
2022-08-03T03:24:56.523Z,69.45
2022-08-03T03:27:28.115Z,69.45
2022-08-03T03:29:59.900Z,69.73
2022-08-03T03:32:30.447Z,69.31
2022-08-03T03:35:00.868Z,69.22
2022-08-03T03:37:30.458Z,69.51
2022-08-03T03:40:00.321Z,69.62
2022-08-03T03:42:30.819Z,69.54
2022-08-03T03:45:02.337Z,69.18
2022-08-03T03:47:33.098Z,69.90
2022-08-03T03:50:07.259Z,69.79
2022-08-03T03:52:37.511Z,70.25
2022-08-03T03:55:08.365Z,69.96
2022-08-03T03:57:38.146Z,69.74
2022-08-03T04:00:10.159Z,69.58
2022-08-03T04:02:40.695Z,69.56
2022-08-03T04:05:28.223Z,69.86
2022-08-03T04:08:24.678Z,69.92
2022-08-03T04:11:29.215Z,70.17
2022-08-03T04:14:01.895Z,69.91
2022-08-03T04:16:34.380Z,69.39
2022-08-03T04:19:07.510Z,69.42
2022-08-03T04:21:40.313Z,70.16
2022-08-03T04:24:12.514Z,70.77
2022-08-03T04:26:44.121Z,70.66
2022-08-03T04:29:15.340Z,70.86
2022-08-03T04:31:46.953Z,70.77
2022-08-03T04:34:17.265Z,70.32
2022-08-03T04:36:50.222Z,70.40
2022-08-03T04:39:23.265Z,71.17
2022-08-03T04:42:07.666Z,70.77
2022-08-03T04:44:29.250Z,70.65
2022-08-03T04:47:00.540Z,70.44
2022-08-03T04:49:31.405Z,70.93
2022-08-03T04:52:01.929Z,70.60
2022-08-03T04:54:32.250Z,70.07
2022-08-03T04:57:02.018Z,70.17
2022-08-03T04:59:31.798Z,70.36
2022-08-03T05:02:01.721Z,70.09
2022-08-03T05:04:31.690Z,70.41
2022-08-03T05:07:11.736Z,69.63
2022-08-03T05:09:50.170Z,70.63
2022-08-03T05:12:07.311Z,70.63
2022-08-03T05:14:38.697Z,70.54
2022-08-03T05:17:09.412Z,70.46
2022-08-03T05:19:39.194Z,70.63
2022-08-03T05:22:10.489Z,70.02
2022-08-03T05:24:40.269Z,69.89
2022-08-03T05:27:10.710Z,69.02
2022-08-03T05:29:41.345Z,70.38
2022-08-03T05:32:12.647Z,69.87
2022-08-03T05:34:42.432Z,70.62
2022-08-03T05:37:12.768Z,70.86
2022-08-03T05:39:42.540Z,70.29
2022-08-03T05:42:12.372Z,70.29
2022-08-03T05:44:42.152Z,69.33
2022-08-03T05:47:11.917Z,68.50
2022-08-03T05:49:41.510Z,68.50
2022-08-03T05:52:14.658Z,67.71
2022-08-03T05:54:56.678Z,67.67
2022-08-03T05:57:14.875Z,68.43
2022-08-03T05:59:53.922Z,67.37
2022-08-03T06:02:16.415Z,66.98
2022-08-03T06:04:46.915Z,66.88
2022-08-03T06:07:16.694Z,66.97
2022-08-03T06:10:36.157Z,67.02
2022-08-03T06:12:18.337Z,66.22
2022-08-03T06:14:48.335Z,65.40
2022-08-03T06:17:18.102Z,66.09
2022-08-03T06:19:47.888Z,64.88
2022-08-03T06:22:17.825Z,64.31
2022-08-03T06:24:53.527Z,63.48
2022-08-03T06:27:20.405Z,62.99
2022-08-03T06:29:51.874Z,62.42
2022-08-03T06:32:22.721Z,62.23
2022-08-03T06:34:52.496Z,61.33
2022-08-03T06:37:23.138Z,60.90
2022-08-03T06:39:53.377Z,60.67
2022-08-03T06:42:23.219Z,60.72
2022-08-03T06:44:54.999Z,60.79
2022-08-03T06:47:24.781Z,60.36
2022-08-03T06:50:16.151Z,60.45
2022-08-03T06:52:37.260Z,59.59
2022-08-03T06:54:57.209Z,57.46
2022-08-03T06:57:27.183Z,57.46
2022-08-03T07:00:09.050Z,57.07
2022-08-03T07:02:30.367Z,56.64
2022-08-03T07:05:00.428Z,57.28
2022-08-03T07:07:30.271Z,57.58
2022-08-03T07:10:00.136Z,56.61
2022-08-03T07:12:32.641Z,56.40
2022-08-03T07:15:04.062Z,55.81
2022-08-03T07:17:35.475Z,54.54
2022-08-03T07:20:09.206Z,55.08
2022-08-03T07:22:38.950Z,54.04
2022-08-03T07:25:09.377Z,53.95
2022-08-03T07:27:39.373Z,53.30
2022-08-03T07:30:11.838Z,52.78
2022-08-03T07:32:49.864Z,52.63
2022-08-03T07:35:24.226Z,53.41
2022-08-03T07:37:54.124Z,53.41
2022-08-03T07:40:17.673Z,52.55
2022-08-03T07:42:47.445Z,52.13
2022-08-03T07:45:18.997Z,50.79
2022-08-03T07:47:53.486Z,51.29
2022-08-03T07:50:19.985Z,50.60
2022-08-03T07:52:51.614Z,48.44
2022-08-03T07:55:23.382Z,48.60
2022-08-03T07:58:12.183Z,48.67
2022-08-03T08:00:42.331Z,49.23
2022-08-03T08:03:13.136Z,48.45
2022-08-03T08:05:42.969Z,48.45
2022-08-03T08:08:13.742Z,47.29
2022-08-03T08:10:57.886Z,47.15
2022-08-03T08:13:14.989Z,46.87
2022-08-03T08:15:44.762Z,47.44
2022-08-03T08:18:16.140Z,47.62
2022-08-03T08:20:45.914Z,46.82
2022-08-03T08:23:42.931Z,46.05
2022-08-03T08:25:47.163Z,45.34
2022-08-03T08:28:32.936Z,44.42
2022-08-03T08:30:53.586Z,43.85
2022-08-03T08:33:24.132Z,43.45
2022-08-03T08:35:55.023Z,42.91
2022-08-03T08:38:25.065Z,42.91
2022-08-03T08:40:57.123Z,43.87
2022-08-03T08:43:26.896Z,44.07
2022-08-03T08:45:59.710Z,44.34
2022-08-03T08:48:31.893Z,43.83
2022-08-03T08:51:02.490Z,44.16
2022-08-03T08:53:35.217Z,44.01
2022-08-03T08:56:08.606Z,43.56
2022-08-03T08:58:44.102Z,43.60
2022-08-03T09:01:13.766Z,42.98
2022-08-03T09:03:43.640Z,42.43
2022-08-03T09:06:13.422Z,41.80
2022-08-03T09:08:43.331Z,41.43
2022-08-03T09:11:13.186Z,41.79
2022-08-03T09:13:43.618Z,41.59
2022-08-03T09:16:18.626Z,40.93
2022-08-03T09:18:51.026Z,40.89
2022-08-03T09:21:34.196Z,40.20
2022-08-03T09:24:02.724Z,39.52
2022-08-03T09:26:31.664Z,39.46
2022-08-03T09:29:13.153Z,39.86
2022-08-03T09:31:43.869Z,39.86
2022-08-03T09:34:16.651Z,38.51
2022-08-03T09:36:52.229Z,38.95
2022-08-03T09:39:28.630Z,38.50
2022-08-03T09:42:10.224Z,39.02
2022-08-03T09:44:42.605Z,38.89
2022-08-03T09:47:14.440Z,39.16
2022-08-03T09:49:46.272Z,39.16
2022-08-03T09:52:39.438Z,37.92
2022-08-03T09:54:53.676Z,38.00
2022-08-03T09:57:25.291Z,37.10
2022-08-03T10:00:04.449Z,37.67
2022-08-03T10:02:29.688Z,37.85
2022-08-03T10:04:59.455Z,37.32
2022-08-03T10:07:29.309Z,37.84
2022-08-03T10:10:30.090Z,37.12
2022-08-03T10:12:32.755Z,37.05
2022-08-03T10:15:03.302Z,36.63
2022-08-03T10:17:36.198Z,37.04
2022-08-03T10:20:07.575Z,35.70
2022-08-03T10:22:39.727Z,35.31
2022-08-03T10:25:12.519Z,34.69
2022-08-03T10:27:45.645Z,33.92
2022-08-03T10:30:15.741Z,34.50
2022-08-03T10:32:50.978Z,34.44
2022-08-03T10:35:23.376Z,34.37
2022-08-03T10:38:05.307Z,33.63
2022-08-03T10:40:55.819Z,32.95
2022-08-03T10:43:16.312Z,33.43
2022-08-03T10:45:48.032Z,34.24
2022-08-03T10:48:19.466Z,34.20
2022-08-03T10:50:51.488Z,34.05
2022-08-03T10:53:35.916Z,32.33
2022-08-03T10:56:44.372Z,32.33
2022-08-03T10:58:58.301Z,32.76
2022-08-03T11:01:58.645Z,32.03
2022-08-03T11:04:25.033Z,31.57
2022-08-03T11:07:18.615Z,31.09
2022-08-03T11:09:54.098Z,30.63
2022-08-03T11:12:31.425Z,30.95
2022-08-03T11:15:09.305Z,32.11
2022-08-03T11:17:46.349Z,30.69
2022-08-03T11:20:12.916Z,30.66
2022-08-03T11:22:54.337Z,30.67
2022-08-03T11:25:54.840Z,30.65
2022-08-03T11:28:14.382Z,30.76
2022-08-03T11:30:44.438Z,29.80
2022-08-03T11:33:17.259Z,30.34
2022-08-03T11:36:02.480Z,31.10
2022-08-03T11:38:32.288Z,29.73
2022-08-03T11:41:02.534Z,31.00
2022-08-03T11:43:36.730Z,30.70
2022-08-03T11:46:11.436Z,30.39
2022-08-03T11:48:43.560Z,30.61
2022-08-03T11:51:27.847Z,31.24
2022-08-03T11:53:59.629Z,31.02
2022-08-03T11:56:31.792Z,30.28
2022-08-03T11:59:20.314Z,29.49
2022-08-03T12:01:33.039Z,28.94
2022-08-03T12:04:07.264Z,28.71
2022-08-03T12:06:38.861Z,28.92
2022-08-03T12:09:21.310Z,28.26
2022-08-03T12:11:59.754Z,27.59
2022-08-03T12:14:49.277Z,28.65
2022-08-03T12:16:54.700Z,28.57
2022-08-03T12:19:24.481Z,29.10
2022-08-03T12:21:56.756Z,28.61
2022-08-03T12:24:27.438Z,28.79
2022-08-03T12:27:00.073Z,28.12
2022-08-03T12:29:30.041Z,28.12
2022-08-03T12:31:59.524Z,27.92
2022-08-03T12:34:49.680Z,28.16
2022-08-03T12:37:23.869Z,27.91
2022-08-03T12:40:05.201Z,27.97
2022-08-03T12:42:34.736Z,28.64
2022-08-03T12:45:27.819Z,28.87
2022-08-03T12:48:00.035Z,28.34
2022-08-03T12:50:32.050Z,28.19
2022-08-03T12:53:04.538Z,28.55
2022-08-03T12:55:57.855Z,29.00
2022-08-03T12:58:13.666Z,29.13
2022-08-03T13:00:42.184Z,29.51
2022-08-03T13:03:39.311Z,28.35
2022-08-03T13:05:47.088Z,29.17
2022-08-03T13:08:25.378Z,29.00
2022-08-03T13:10:55.198Z,29.15
2022-08-03T13:13:41.187Z,29.67
2022-08-03T13:16:15.786Z,28.98
2022-08-03T13:18:42.982Z,29.49
2022-08-03T13:21:17.893Z,29.84
2022-08-03T13:23:47.953Z,28.55
2022-08-03T13:26:17.726Z,28.73
2022-08-03T13:28:47.487Z,28.84
2022-08-03T13:31:17.259Z,29.32
2022-08-03T13:33:47.024Z,28.70
2022-08-03T13:36:17.362Z,28.06
2022-08-03T13:38:47.135Z,27.96
2022-08-03T13:41:16.975Z,28.43
2022-08-03T13:43:47.225Z,28.02
2022-08-03T13:46:17.577Z,28.29
2022-08-03T13:48:47.344Z,28.83
2022-08-03T13:51:22.608Z,28.68
2022-08-03T13:53:48.295Z,29.28
2022-08-03T13:56:18.116Z,28.92
2022-08-03T13:58:47.890Z,30.33
2022-08-03T14:01:29.653Z,29.48
2022-08-03T14:03:51.402Z,28.92
2022-08-03T14:06:23.618Z,30.18
2022-08-03T14:08:56.785Z,30.01
2022-08-03T14:11:25.774Z,29.93
2022-08-03T14:13:57.300Z,30.04
2022-08-03T14:16:27.010Z,29.64
2022-08-03T14:18:56.780Z,29.28
2022-08-03T14:21:27.743Z,28.87
2022-08-03T14:23:57.503Z,29.12
2022-08-03T14:26:27.661Z,29.05
2022-08-03T14:28:57.428Z,29.24
2022-08-03T14:32:11.877Z,29.67
2022-08-03T14:33:58.807Z,29.30
2022-08-03T14:36:28.641Z,28.80
2022-08-03T14:39:01.332Z,28.67
2022-08-03T14:41:29.937Z,28.91
2022-08-03T14:44:02.070Z,28.34
2022-08-03T14:46:32.079Z,29.02
2022-08-03T14:50:34.339Z,28.91
2022-08-03T14:51:33.310Z,28.45
2022-08-03T14:54:03.371Z,28.27
2022-08-03T14:56:33.154Z,28.17
2022-08-03T14:59:02.919Z,28.07
2022-08-03T15:02:04.776Z,27.51
2022-08-03T15:04:05.027Z,27.13
2022-08-03T15:06:35.133Z,27.88
2022-08-03T15:11:36.973Z,28.70
2022-08-03T15:14:09.522Z,28.59
2022-08-03T15:16:39.836Z,28.45
2022-08-03T15:20:05.564Z,29.44
2022-08-03T15:21:47.342Z,29.38
2022-08-03T15:24:12.251Z,28.94
2022-08-03T15:26:42.112Z,29.55
2022-08-03T15:30:05.159Z,28.61
2022-08-03T15:31:44.979Z,28.25
2022-08-03T15:34:14.761Z,28.25
2022-08-03T15:36:44.812Z,27.91
2022-08-03T15:39:14.921Z,27.71
2022-08-03T15:41:45.043Z,27.57
2022-08-03T15:44:14.496Z,27.39
2022-08-03T15:46:44.276Z,28.33
2022-08-03T15:49:14.206Z,27.69
2022-08-03T15:51:43.983Z,27.69
2022-08-03T15:54:13.523Z,27.03
2022-08-03T15:56:44.940Z,27.01
2022-08-03T15:59:14.407Z,26.81
2022-08-03T16:01:44.386Z,26.71
2022-08-03T16:04:14.138Z,26.42
2022-08-03T16:06:43.905Z,26.36
2022-08-03T16:09:24.358Z,26.61
2022-08-03T16:11:45.144Z,26.28
2022-08-03T16:14:32.664Z,26.28
2022-08-03T16:16:46.607Z,26.28
2022-08-03T16:19:16.639Z,27.20
2022-08-03T16:21:48.184Z,28.02
2022-08-03T16:24:25.869Z,27.06
2022-08-03T16:26:49.454Z,27.06
2022-08-03T16:29:23.140Z,26.40
2022-08-03T16:31:51.349Z,25.96
2022-08-03T16:34:21.395Z,25.90
2022-08-03T16:36:51.174Z,26.51
2022-08-03T16:39:21.007Z,26.97
2022-08-03T16:41:54.029Z,26.86
2022-08-03T16:44:22.408Z,27.54
2022-08-03T16:46:52.251Z,26.56
2022-08-03T16:49:54.876Z,27.02
2022-08-03T16:51:53.364Z,26.13
2022-08-03T16:54:23.895Z,26.87
2022-08-03T16:56:55.439Z,25.90
2022-08-03T16:59:36.377Z,26.63
2022-08-03T17:01:58.096Z,26.98
2022-08-03T17:04:29.340Z,27.27
2022-08-03T17:07:00.089Z,28.01
2022-08-03T17:09:38.252Z,28.43
2022-08-03T17:12:03.123Z,28.81
2022-08-03T17:14:33.158Z,28.82
2022-08-03T17:17:05.955Z,29.17
2022-08-03T17:19:39.944Z,28.64
2022-08-03T17:22:17.758Z,28.51
2022-08-03T17:24:50.104Z,28.82
2022-08-03T17:28:50.746Z,28.64
2022-08-03T17:29:57.196Z,28.60
2022-08-03T17:32:30.142Z,28.26
2022-08-03T17:35:00.276Z,28.71
2022-08-03T17:37:57.440Z,27.72
2022-08-03T17:40:03.759Z,27.72
2022-08-03T17:42:35.183Z,27.78
2022-08-03T17:45:08.358Z,28.51
2022-08-03T17:47:42.087Z,28.81
2022-08-03T17:50:24.322Z,27.64
2022-08-03T17:52:48.620Z,28.07
2022-08-03T17:55:56.440Z,28.76
2022-08-03T17:58:03.413Z,28.13
2022-08-03T18:00:53.186Z,28.08
2022-08-03T18:03:56.989Z,27.87
2022-08-03T18:06:12.945Z,29.39
2022-08-03T18:08:48.249Z,30.30
2022-08-03T18:11:21.920Z,31.55
2022-08-03T18:14:16.297Z,32.54
2022-08-03T18:16:51.900Z,33.18
2022-08-03T18:20:01.767Z,33.58
2022-08-03T18:22:03.548Z,33.84
2022-08-03T18:24:30.435Z,34.11
2022-08-03T18:27:04.237Z,34.22
2022-08-03T18:29:36.964Z,34.48
2022-08-03T18:32:13.667Z,35.27
2022-08-03T18:37:23.010Z,35.95
2022-08-03T18:39:52.716Z,35.88
2022-08-03T18:42:26.470Z,36.46
2022-08-03T18:44:56.343Z,36.10
2022-08-03T18:47:52.488Z,36.58
2022-08-03T18:50:30.749Z,36.62
2022-08-03T18:53:19.726Z,36.94
2022-08-03T18:56:02.670Z,37.48
2022-08-03T18:58:38.794Z,37.45
2022-08-03T19:02:00.639Z,37.45
2022-08-03T19:03:54.114Z,37.58
2022-08-03T19:06:26.442Z,37.98
2022-08-03T19:08:58.679Z,38.92
2022-08-03T19:12:13.304Z,39.29
2022-08-03T19:14:05.639Z,39.09
2022-08-03T19:16:39.533Z,39.38
2022-08-03T19:19:14.483Z,39.76
2022-08-03T19:21:46.004Z,40.09
2022-08-03T19:24:21.678Z,40.32
2022-08-03T19:26:55.408Z,40.51
2022-08-03T19:29:57.904Z,41.15
2022-08-03T19:31:59.978Z,40.85
2022-08-03T19:34:32.632Z,41.16
2022-08-03T19:37:03.336Z,41.36
2022-08-03T19:39:33.705Z,41.55
2022-08-03T19:42:12.169Z,41.93
2022-08-03T19:44:44.962Z,42.01
2022-08-03T19:47:30.005Z,42.29
2022-08-03T19:50:06.001Z,42.53
2022-08-03T19:52:35.651Z,42.10
2022-08-03T19:55:12.098Z,42.68
2022-08-03T19:57:45.866Z,42.59
2022-08-03T20:00:17.617Z,43.03
2022-08-03T20:02:50.856Z,43.97
2022-08-03T20:05:20.741Z,43.62
2022-08-03T20:07:53.497Z,44.00
2022-08-03T20:10:23.215Z,43.97
2022-08-03T20:12:54.637Z,44.28
2022-08-03T20:15:31.340Z,44.29
2022-08-03T20:17:58.616Z,44.29
2022-08-03T20:20:36.409Z,44.40
2022-08-03T20:23:10.029Z,44.41
2022-08-03T20:25:57.016Z,44.67
2022-08-03T20:28:17.326Z,45.47
2022-08-03T20:30:47.721Z,46.24
2022-08-03T20:33:18.787Z,46.24
2022-08-03T20:35:50.541Z,45.67
2022-08-03T20:38:20.437Z,45.92
2022-08-03T20:40:51.916Z,46.13
2022-08-03T20:43:23.326Z,46.26
2022-08-03T20:45:58.975Z,46.24
2022-08-03T20:48:26.272Z,46.15
2022-08-03T20:50:56.463Z,46.90
2022-08-03T20:53:59.796Z,46.64
2022-08-03T20:56:02.347Z,46.69
2022-08-03T20:58:33.504Z,46.73
2022-08-03T21:01:03.840Z,46.42
2022-08-03T21:03:40.896Z,46.85
2022-08-03T21:06:08.784Z,47.24
2022-08-03T21:08:46.906Z,47.72
2022-08-03T21:11:15.283Z,47.38
2022-08-03T21:12:58.523Z,35.43
2022-08-03T21:13:53.915Z,47.56
2022-08-03T21:16:26.959Z,48.37
2022-08-03T21:18:59.535Z,47.88
2022-08-03T21:21:32.411Z,48.41
2022-08-03T21:24:04.598Z,48.41
2022-08-03T21:26:37.213Z,48.35
2022-08-03T21:29:08.485Z,48.46
2022-08-03T21:31:40.058Z,49.03
2022-08-03T21:34:11.662Z,49.09
2022-08-03T21:36:41.511Z,49.28
2022-08-03T21:39:12.470Z,49.34
2022-08-03T21:41:42.600Z,48.66
2022-08-03T21:44:13.474Z,49.16
2022-08-03T21:46:44.881Z,49.46
2022-08-03T21:50:05.892Z,50.03
2022-08-03T21:51:48.475Z,50.03
2022-08-03T21:54:20.124Z,50.03
2022-08-03T21:56:51.906Z,50.09
2022-08-03T21:59:23.922Z,49.80
2022-08-03T22:01:55.167Z,49.67
2022-08-03T22:04:50.085Z,49.67
2022-08-03T22:06:59.324Z,49.72
2022-08-03T22:09:29.462Z,50.05
2022-08-03T22:11:59.234Z,50.65
2022-08-03T22:14:29.042Z,50.74
2022-08-03T22:16:58.883Z,51.38
2022-08-03T22:19:28.713Z,51.43
2022-08-03T22:21:59.933Z,51.75
2022-08-03T22:24:32.606Z,51.75
2022-08-03T22:27:21.409Z,51.98
2022-08-03T22:29:52.227Z,52.14
2022-08-03T22:32:22.566Z,52.34
2022-08-03T22:34:53.751Z,52.30
2022-08-03T22:37:26.635Z,52.59
2022-08-03T22:39:58.365Z,52.83
2022-08-03T22:42:28.284Z,53.07
2022-08-03T22:44:58.052Z,53.57
2022-08-03T22:47:28.461Z,53.48
2022-08-03T22:50:31.672Z,53.51
2022-08-03T22:52:31.366Z,53.35
2022-08-03T22:55:03.341Z,53.31
2022-08-03T22:57:34.709Z,53.31
2022-08-03T23:00:09.150Z,53.66
2022-08-03T23:02:40.894Z,53.61
2022-08-03T23:06:00.650Z,53.62
2022-08-03T23:07:51.490Z,53.64
2022-08-03T23:10:21.385Z,53.75
2022-08-03T23:12:51.591Z,53.86
2022-08-03T23:15:26.145Z,53.64
2022-08-03T23:17:58.598Z,53.52
2022-08-03T23:20:29.456Z,53.42
2022-08-03T23:23:00.636Z,53.80
2022-08-03T23:25:30.555Z,53.45
2022-08-03T23:28:05.512Z,54.07
2022-08-03T23:30:36.437Z,54.11
2022-08-03T23:33:09.570Z,54.60
2022-08-03T23:36:22.581Z,53.95
2022-08-03T23:38:31.312Z,53.48
2022-08-03T23:41:03.396Z,54.00
2022-08-03T23:43:46.989Z,54.31
2022-08-03T23:46:10.388Z,54.44
2022-08-03T23:48:40.150Z,54.75
2022-08-03T23:51:31.939Z,54.67
2022-08-03T23:54:22.632Z,54.51
2022-08-03T23:57:10.178Z,54.26
2022-08-03T23:59:42.986Z,55.08
